Time,TemperatureF,DewpointF,PressureIn,WindDirection,WindDirectionDegrees,WindSpeedMPH,WindSpeedGustMPH,Humidity,HourlyPrecipIn,Conditions,Clouds,dailyrainin,SoftwareType,DateUTC
2013-03-26 00:00:00,59.0,59.0,29.38,SSE,158,9.2,9.2,100,0.00,CLR,,0.00,WeatherDisplay:10.37,2013-03-25 22:00:00,
2013-03-26 00:01:00,59.0,59.0,29.38,SE,135,8.1,8.1,100,0.00,CLR,,0.00,WeatherDisplay:10.37,2013-03-25 22:01:00,
2013-03-26 00:03:00,59.0,59.0,29.38,SSE,158,8.1,8.1,100,0.00,CLR,,0.00,WeatherDisplay:10.37,2013-03-25 22:03:00,
2013-03-26 00:05:00,59.0,59.0,29.38,SE,135,5.9,5.9,100,0.00,CLR,,0.00,WeatherDisplay:10.37,2013-03-25 22:05:00,
2013-03-26 00:07:00,59.0,59.0,29.38,SSE,158,15.0,15.0,100,0.00,CLR,,0.00,WeatherDisplay:10.37,2013-03-25 22:07:00,
2013-03-26 00:08:00,59.0,59.0,29.38,SSE,158,15.0,15.0,100,0.00,CLR,,0.00,WeatherDisplay:10.37,2013-03-25 22:08:00,
2013-03-26 00:09:00,59.0,59.0,29.38,SSE,158,12.7,12.7,100,0.00,CLR,,0.00,WeatherDisplay:10.37,2013-03-25 22:09:00,
2013-03-26 00:10:00,59.0,59.0,29.38,SSE,158,8.1,8.1,100,0.00,CLR,,0.00,WeatherDisplay:10.37,2013-03-25 22:10:00,
2013-03-26 00:12:00,59.0,59.0,29.38,South,180,8.1,8.1,100,0.00,CLR,,0.00,WeatherDisplay:10.37,2013-03-25 22:12:00,
2013-03-26 00:13:00,59.0,59.0,29.38,ESE,112,10.9,10.9,100,0.00,CLR,,0.00,WeatherDisplay:10.37,2013-03-25 22:13:00,
2013-03-26 00:14:00,59.0,59.0,29.38,ESE,112,11.5,11.5,100,0.00,CLR,,0.00,WeatherDisplay:10.37,2013-03-25 22:14:00,
2013-03-26 00:16:00,59.0,59.0,29.38,SSE,158,12.7,12.7,100,0.00,CLR,,0.00,WeatherDisplay:10.37,2013-03-25 22:16:00,
2013-03-26 00:17:00,59.0,59.0,29.38,South,180,5.8,5.8,100,0.00,CLR,,0.00,WeatherDisplay:10.37,2013-03-25 22:17:00,
2013-03-26 00:18:00,58.8,58.8,29.38,SSE,158,3.5,4.0,100,0.00,CLR,,0.00,WeatherDisplay:10.37,2013-03-25 22:18:00,
2013-03-26 00:19:00,58.8,58.8,29.38,SE,135,9.8,9.8,100,0.00,CLR,,0.00,WeatherDisplay:10.37,2013-03-25 22:19:00,
2013-03-26 00:21:00,58.8,58.8,29.38,ESE,112,9.2,9.2,100,0.00,CLR,,0.00,WeatherDisplay:10.37,2013-03-25 22:21:00,
2013-03-26 00:23:00,58.8,58.8,29.38,SSE,158,4.6,4.6,100,0.00,CLR,,0.00,WeatherDisplay:10.37,2013-03-25 22:23:00,
2013-03-26 00:25:00,58.8,58.8,29.35,ESE,112,4.6,4.6,100,0.00,CLR,,0.00,WeatherDisplay:10.37,2013-03-25 22:25:00,
2013-03-26 00:26:00,58.8,58.8,29.35,SSE,158,3.6,0.0,100,0.00,CLR,,0.00,WeatherDisplay:10.37,2013-03-25 22:26:00,
2013-03-26 00:28:00,58.8,58.8,29.35,South,180,5.8,5.8,100,0.00,CLR,,0.00,WeatherDisplay:10.37,2013-03-25 22:28:00,
2013-03-26 00:30:00,58.6,58.6,29.35,SE,138,2.0,6.0,100,0.00,CLR,,0.00,WeatherDisplay:10.37,2013-03-25 22:30:00,
2013-03-26 00:32:00,58.6,58.6,29.35,SSW,202,5.8,5.8,100,0.00,CLR,,0.00,WeatherDisplay:10.37,2013-03-25 22:32:00,
2013-03-26 00:34:00,58.6,58.6,29.35,SSE,158,3.5,3.5,100,0.00,CLR,,0.00,WeatherDisplay:10.37,2013-03-25 22:34:00,
2013-03-26 00:35:00,58.6,58.6,29.35,SSE,160,3.0,6.0,100,0.00,CLR,,0.00,WeatherDisplay:10.37,2013-03-25 22:35:00,
2013-03-26 00:37:00,58.6,58.6,29.35,SSW,202,4.6,4.6,100,0.00,CLR,,0.00,WeatherDisplay:10.37,2013-03-25 22:37:00,
2013-03-26 00:39:00,58.6,58.6,29.35,South,180,4.9,4.9,100,0.00,CLR,,0.00,WeatherDisplay:10.37,2013-03-25 22:39:00,
2013-03-26 00:40:00,58.6,58.6,29.35,South,180,4.6,4.6,100,0.00,CLR,,0.00,WeatherDisplay:10.37,2013-03-25 22:40:00,
2013-03-26 00:42:00,58.6,58.6,29.35,SSE,158,6.4,6.4,100,0.00,CLR,,0.00,WeatherDisplay:10.37,2013-03-25 22:42:00,
2013-03-26 00:44:00,58.6,58.6,29.35,SSE,158,6.9,6.9,100,0.00,CLR,,0.00,WeatherDisplay:10.37,2013-03-25 22:44:00,
2013-03-26 00:45:00,58.6,58.6,29.35,SSE,158,6.9,6.9,100,0.00,CLR,,0.00,WeatherDisplay:10.37,2013-03-25 22:45:00,
2013-03-26 00:47:00,58.6,58.6,29.35,SE,135,5.8,5.8,100,0.00,CLR,,0.00,WeatherDisplay:10.37,2013-03-25 22:47:00,
2013-03-26 00:49:00,58.6,58.6,29.35,SSE,158,4.6,4.6,100,0.00,CLR,,0.00,WeatherDisplay:10.37,2013-03-25 22:49:00,
2013-03-26 00:50:00,58.6,58.6,29.35,SE,135,4.6,4.6,100,0.00,CLR,,0.00,WeatherDisplay:10.37,2013-03-25 22:50:00,
2013-03-26 00:52:00,58.6,58.6,29.35,SSE,158,4.6,4.6,100,0.00,CLR,,0.00,WeatherDisplay:10.37,2013-03-25 22:52:00,
2013-03-26 00:54:00,58.5,58.5,29.35,ESE,112,1.4,1.6,100,0.00,CLR,,0.00,WeatherDisplay:10.37,2013-03-25 22:54:00,
2013-03-26 00:55:00,58.5,58.5,29.35,SE,135,4.6,4.6,100,0.00,CLR,,0.00,WeatherDisplay:10.37,2013-03-25 22:55:00,
2013-03-26 00:58:00,58.5,58.2,29.35,ESE,112,2.3,2.3,99,0.00,CLR,,0.00,WeatherDisplay:10.37,2013-03-25 22:58:00,
2013-03-26 00:59:00,58.5,58.2,29.35,SE,135,3.5,3.5,99,0.00,CLR,,0.00,WeatherDisplay:10.37,2013-03-25 22:59:00,
2013-03-26 01:00:00,58.3,58.0,29.35,SSE,158,4.3,0.0,99,0.00,CLR,,0.00,WeatherDisplay:10.37,2013-03-25 23:00:00,
2013-03-26 01:03:00,58.3,58.0,29.35,SE,135,5.8,5.8,99,0.00,CLR,,0.00,WeatherDisplay:10.37,2013-03-25 23:03:00,
2013-03-26 01:04:00,58.3,58.0,29.35,SSE,158,3.5,3.5,99,0.00,CLR,,0.00,WeatherDisplay:10.37,2013-03-25 23:04:00,
2013-03-26 01:06:00,58.3,58.0,29.35,SE,135,4.6,4.6,99,0.00,CLR,,0.00,WeatherDisplay:10.37,2013-03-25 23:06:00,
2013-03-26 01:08:00,58.3,57.7,29.35,SSE,158,5.8,5.8,98,0.00,CLR,,0.00,WeatherDisplay:10.37,2013-03-25 23:08:00,
2013-03-26 01:09:00,58.3,57.7,29.38,SE,135,5.8,5.8,98,0.00,CLR,,0.00,WeatherDisplay:10.37,2013-03-25 23:09:00,
2013-03-26 01:11:00,58.1,57.5,29.38,SSE,158,2.3,0.0,98,0.00,CLR,,0.00,WeatherDisplay:10.37,2013-03-25 23:11:00,
2013-03-26 01:14:00,58.1,57.5,29.38,South,180,2.4,2.4,98,0.00,CLR,,0.00,WeatherDisplay:10.37,2013-03-25 23:14:00,
2013-03-26 01:16:00,57.9,57.4,29.38,SSE,158,1.4,1.4,98,0.00,CLR,,0.00,WeatherDisplay:10.37,2013-03-25 23:16:00,
2013-03-26 01:17:00,57.9,57.4,29.38,SSE,158,2.4,2.4,98,0.00,CLR,,0.00,WeatherDisplay:10.37,2013-03-25 23:17:00,
2013-03-26 01:19:00,57.9,57.4,29.38,SSW,202,5.8,5.8,98,0.00,CLR,,0.00,WeatherDisplay:10.37,2013-03-25 23:19:00,
2013-03-26 01:20:00,57.9,57.4,29.38,SSE,158,5.8,5.8,98,0.00,CLR,,0.00,WeatherDisplay:10.37,2013-03-25 23:20:00,
2013-03-26 01:21:00,57.9,57.4,29.38,SSE,158,6.9,6.9,98,0.00,CLR,,0.00,WeatherDisplay:10.37,2013-03-25 23:21:00,
2013-03-26 01:22:00,57.9,57.4,29.38,SSE,158,4.6,4.6,98,0.00,CLR,,0.00,WeatherDisplay:10.37,2013-03-25 23:22:00,
2013-03-26 01:24:00,57.9,57.6,29.38,SSE,158,4.6,4.6,99,0.00,CLR,,0.00,WeatherDisplay:10.37,2013-03-25 23:24:00,
2013-03-26 01:25:00,57.9,57.6,29.35,SSE,158,4.7,4.7,99,0.00,CLR,,0.00,WeatherDisplay:10.37,2013-03-25 23:25:00,
2013-03-26 01:26:00,57.9,57.6,29.35,ESE,112,4.6,4.6,99,0.00,CLR,,0.00,WeatherDisplay:10.37,2013-03-25 23:26:00,
2013-03-26 01:27:00,57.9,57.6,29.35,SSE,158,3.5,3.5,99,0.00,CLR,,0.00,WeatherDisplay:10.37,2013-03-25 23:27:00,
2013-03-26 01:29:00,57.9,57.6,29.35,SSE,158,5.8,5.8,99,0.00,CLR,,0.00,WeatherDisplay:10.37,2013-03-25 23:29:00,
2013-03-26 01:30:00,57.9,57.6,29.35,South,180,5.8,5.8,99,0.00,CLR,,0.00,WeatherDisplay:10.37,2013-03-25 23:30:00,
2013-03-26 01:32:00,57.9,57.6,29.35,SSE,158,4.6,4.6,99,0.00,CLR,,0.00,WeatherDisplay:10.37,2013-03-25 23:32:00,
2013-03-26 01:34:00,57.9,57.9,29.35,SSE,158,6.9,6.9,100,0.00,CLR,,0.00,WeatherDisplay:10.37,2013-03-25 23:34:00,
2013-03-26 01:35:00,57.9,57.9,29.35,SSE,158,3.5,3.5,100,0.00,CLR,,0.00,WeatherDisplay:10.37,2013-03-25 23:35:00,
2013-03-26 01:37:00,57.9,57.9,29.35,SSW,202,3.5,3.5,100,0.00,CLR,,0.00,WeatherDisplay:10.37,2013-03-25 23:37:00,
2013-03-26 01:39:00,57.9,57.9,29.35,South,180,3.5,3.5,100,0.00,CLR,,0.00,WeatherDisplay:10.37,2013-03-25 23:39:00,
2013-03-26 01:40:00,57.9,57.9,29.35,SSE,158,2.9,2.9,100,0.00,CLR,,0.00,WeatherDisplay:10.37,2013-03-25 23:40:00,
2013-03-26 01:42:00,57.9,57.9,29.35,SSE,158,5.8,5.8,100,0.00,CLR,,0.00,WeatherDisplay:10.37,2013-03-25 23:42:00,
2013-03-26 01:44:00,57.9,57.9,29.35,SSE,158,5.8,5.8,100,0.00,CLR,,0.00,WeatherDisplay:10.37,2013-03-25 23:44:00,
2013-03-26 01:45:00,57.9,57.9,29.35,SSW,202,5.8,5.8,100,0.00,CLR,,0.00,WeatherDisplay:10.37,2013-03-25 23:45:00,
2013-03-26 01:47:00,57.7,57.7,29.35,SSE,158,5.8,5.8,100,0.00,CLR,,0.00,WeatherDisplay:10.37,2013-03-25 23:47:00,
2013-03-26 01:49:00,57.7,57.7,29.35,South,180,2.4,2.4,100,0.00,CLR,,0.00,WeatherDisplay:10.37,2013-03-25 23:49:00,
2013-03-26 01:50:00,57.7,57.7,29.35,SSE,158,2.3,2.3,100,0.00,CLR,,0.00,WeatherDisplay:10.37,2013-03-25 23:50:00,
2013-03-26 01:52:00,57.7,57.7,29.35,ESE,112,9.2,9.2,100,0.00,CLR,,0.00,WeatherDisplay:10.37,2013-03-25 23:52:00,
2013-03-26 01:55:00,57.7,57.7,29.35,SSE,158,8.1,8.1,100,0.00,CLR,,0.00,WeatherDisplay:10.37,2013-03-25 23:55:00,
2013-03-26 01:57:00,57.7,57.7,29.35,SE,135,5.8,5.8,100,0.00,CLR,,0.00,WeatherDisplay:10.37,2013-03-25 23:57:00,
2013-03-26 01:58:00,57.7,57.7,29.35,ESE,112,5.8,5.8,100,0.00,CLR,,0.00,WeatherDisplay:10.37,2013-03-25 23:58:00,
2013-03-26 02:00:00,57.7,57.7,29.35,SSE,158,5.8,5.8,100,0.00,CLR,,0.00,WeatherDisplay:10.37,2013-03-26 00:00:00,
2013-03-26 02:02:00,57.6,57.3,29.35,SSE,158,5.8,5.8,99,0.00,CLR,,0.00,WeatherDisplay:10.37,2013-03-26 00:02:00,
2013-03-26 02:03:00,57.6,57.3,29.35,South,180,5.8,5.8,99,0.00,CLR,,0.00,WeatherDisplay:10.37,2013-03-26 00:03:00,
2013-03-26 02:05:00,57.6,57.3,29.35,ESE,112,8.5,8.5,99,0.00,CLR,,0.00,WeatherDisplay:10.37,2013-03-26 00:05:00,
2013-03-26 02:08:00,57.6,57.3,29.35,South,180,5.4,5.4,99,0.00,CLR,,0.00,WeatherDisplay:10.37,2013-03-26 00:08:00,
2013-03-26 02:10:00,57.6,57.0,29.35,ESE,112,9.2,9.2,98,0.00,CLR,,0.00,WeatherDisplay:10.37,2013-03-26 00:10:00,
2013-03-26 02:13:00,57.6,57.0,29.35,SSE,158,9.2,9.2,98,0.00,CLR,,0.00,WeatherDisplay:10.37,2013-03-26 00:13:00,
2013-03-26 02:15:00,57.7,57.2,29.35,SSE,158,6.9,6.9,98,0.00,CLR,,0.00,WeatherDisplay:10.37,2013-03-26 00:15:00,
2013-03-26 02:18:00,57.7,57.2,29.35,SSE,158,4.6,4.7,98,0.00,CLR,,0.00,WeatherDisplay:10.37,2013-03-26 00:18:00,
2013-03-26 02:20:00,57.7,57.2,29.35,SSE,158,8.1,8.1,98,0.00,CLR,,0.00,WeatherDisplay:10.37,2013-03-26 00:20:00,
2013-03-26 02:23:00,57.6,57.0,29.35,SSE,158,7.4,7.4,98,0.00,CLR,,0.00,WeatherDisplay:10.37,2013-03-26 00:23:00,
2013-03-26 02:25:00,57.6,57.0,29.35,South,180,6.9,6.9,98,0.00,CLR,,0.00,WeatherDisplay:10.37,2013-03-26 00:25:00,
2013-03-26 02:28:00,57.6,57.3,29.35,SSE,158,8.1,8.1,99,0.00,CLR,,0.00,WeatherDisplay:10.37,2013-03-26 00:28:00,
2013-03-26 02:30:00,57.6,57.3,29.35,SSW,202,6.9,6.9,99,0.00,CLR,,0.00,WeatherDisplay:10.37,2013-03-26 00:30:00,
2013-03-26 02:31:00,57.6,57.3,29.35,SSW,202,6.9,6.9,99,0.00,CLR,,0.00,WeatherDisplay:10.37,2013-03-26 00:31:00,
2013-03-26 02:33:00,57.6,57.6,29.35,SSE,158,9.2,9.2,100,0.00,CLR,,0.00,WeatherDisplay:10.37,2013-03-26 00:33:00,
2013-03-26 02:34:00,57.6,57.6,29.35,SSE,158,9.2,9.2,100,0.00,CLR,,0.00,WeatherDisplay:10.37,2013-03-26 00:34:00,
2013-03-26 02:35:00,57.6,57.6,29.35,SSE,158,8.1,8.1,100,0.00,CLR,,0.00,WeatherDisplay:10.37,2013-03-26 00:35:00,
2013-03-26 02:36:00,57.6,57.6,29.35,SE,135,8.1,8.1,100,0.00,CLR,,0.00,WeatherDisplay:10.37,2013-03-26 00:36:00,
2013-03-26 02:39:00,57.4,57.4,29.35,SE,135,4.7,4.7,100,0.00,CLR,,0.00,WeatherDisplay:10.37,2013-03-26 00:39:00,
2013-03-26 02:41:00,57.4,57.4,29.35,SE,135,4.0,4.0,100,0.00,CLR,,0.00,WeatherDisplay:10.37,2013-03-26 00:41:00,
2013-03-26 02:44:00,57.2,57.2,29.35,SSE,158,5.8,5.8,100,0.00,CLR,,0.00,WeatherDisplay:10.37,2013-03-26 00:44:00,
2013-03-26 02:47:00,57.2,57.2,29.35,SW,225,8.1,8.1,100,0.00,CLR,,0.00,WeatherDisplay:10.37,2013-03-26 00:47:00,
2013-03-26 02:49:00,57.2,57.2,29.35,SSE,158,4.6,4.6,100,0.00,CLR,,0.00,WeatherDisplay:10.37,2013-03-26 00:49:00,
2013-03-26 02:52:00,57.2,57.2,29.35,SSW,202,2.4,2.4,100,0.00,CLR,,0.00,WeatherDisplay:10.37,2013-03-26 00:52:00,
2013-03-26 02:54:00,57.2,57.2,29.32,SSW,202,9.2,9.2,100,0.00,CLR,,0.00,WeatherDisplay:10.37,2013-03-26 00:54:00,
2013-03-26 02:57:00,57.2,57.2,29.32,South,180,6.9,6.9,100,0.00,CLR,,0.00,WeatherDisplay:10.37,2013-03-26 00:57:00,
2013-03-26 02:58:00,57.2,57.2,29.32,SSE,158,6.9,6.9,100,0.00,CLR,,0.00,WeatherDisplay:10.37,2013-03-26 00:58:00,
2013-03-26 02:59:00,57.2,57.2,29.32,SSW,202,5.8,5.8,100,0.00,CLR,,0.00,WeatherDisplay:10.37,2013-03-26 00:59:00,
2013-03-26 03:00:00,57.2,57.2,29.32,SSW,202,5.8,5.8,100,0.00,CLR,,0.00,WeatherDisplay:10.37,2013-03-26 01:00:00,
2013-03-26 03:02:00,57.2,57.2,29.32,South,180,4.6,4.6,100,0.00,CLR,,0.00,WeatherDisplay:10.37,2013-03-26 01:02:00,
2013-03-26 03:03:00,57.2,57.2,29.32,WSW,248,5.8,5.8,100,0.00,CLR,,0.00,WeatherDisplay:10.37,2013-03-26 01:03:00,
2013-03-26 03:04:00,57.2,57.2,29.32,SSE,158,8.1,8.1,100,0.00,CLR,,0.00,WeatherDisplay:10.37,2013-03-26 01:04:00,
2013-03-26 03:05:00,57.2,57.2,29.32,SSW,202,8.1,8.1,100,0.00,CLR,,0.00,WeatherDisplay:10.37,2013-03-26 01:05:00,
2013-03-26 03:07:00,57.0,57.0,29.32,SW,225,4.7,4.7,100,0.00,CLR,,0.00,WeatherDisplay:10.37,2013-03-26 01:07:00,
2013-03-26 03:08:00,57.0,57.0,29.32,South,180,5.4,5.4,100,0.00,CLR,,0.00,WeatherDisplay:10.37,2013-03-26 01:08:00,
2013-03-26 03:09:00,57.2,57.2,29.32,SSW,202,5.9,5.9,100,0.00,CLR,,0.00,WeatherDisplay:10.37,2013-03-26 01:09:00,
2013-03-26 03:10:00,57.2,57.2,29.32,SSW,202,3.5,3.6,100,0.00,CLR,,0.00,WeatherDisplay:10.37,2013-03-26 01:10:00,
2013-03-26 03:12:00,57.2,57.2,29.32,South,180,7.1,7.1,100,0.00,CLR,,0.00,WeatherDisplay:10.37,2013-03-26 01:12:00,
2013-03-26 03:13:00,57.2,57.2,29.32,SE,135,6.9,6.9,100,0.00,CLR,,0.00,WeatherDisplay:10.37,2013-03-26 01:13:00,
2013-03-26 03:14:00,57.2,56.9,29.32,SSW,202,6.9,6.9,99,0.00,CLR,,0.00,WeatherDisplay:10.37,2013-03-26 01:14:00,
2013-03-26 03:15:00,57.2,56.6,29.32,South,180,6.9,6.9,98,0.00,CLR,,0.00,WeatherDisplay:10.37,2013-03-26 01:15:00,